createdAt,value
2023-03-30T00:01:15.202Z,7.96
2023-03-30T00:05:19.696Z,8.21
2023-03-30T00:09:23.086Z,8.32
2023-03-30T00:13:25.963Z,8.41
2023-03-30T00:17:28.780Z,8.09
2023-03-30T00:21:33.531Z,8.14
2023-03-30T00:25:36.488Z,8.12
2023-03-30T00:29:39.192Z,8.35
2023-03-30T00:33:46.545Z,8.29
2023-03-30T00:37:51.465Z,8.34
2023-03-30T00:41:54.293Z,8.31
2023-03-30T00:45:58.000Z,8.43
2023-03-30T00:50:01.101Z,8.51
2023-03-30T00:54:08.444Z,8.46
2023-03-30T00:58:11.785Z,8.45
2023-03-30T01:02:14.807Z,8.56
2023-03-30T01:06:21.946Z,8.38
2023-03-30T01:10:26.654Z,8.51
2023-03-30T01:14:29.470Z,8.31
2023-03-30T01:18:40.253Z,8.47
2023-03-30T01:23:02.196Z,8.51
2023-03-30T01:27:13.041Z,8.62
2023-03-30T01:31:45.845Z,8.64
2023-03-30T01:36:14.434Z,8.65
2023-03-30T01:40:22.675Z,8.44
2023-03-30T01:44:31.711Z,8.48
2023-03-30T01:48:45.475Z,8.57
2023-03-30T01:52:54.290Z,8.66
2023-03-30T01:57:00.897Z,8.63
2023-03-30T02:01:05.084Z,8.67
2023-03-30T02:05:10.418Z,8.69
2023-03-30T02:09:16.197Z,8.81
2023-03-30T02:13:21.013Z,8.72
2023-03-30T02:17:25.159Z,8.69
2023-03-30T02:21:28.113Z,8.79
2023-03-30T02:25:30.812Z,8.92
2023-03-30T02:29:36.573Z,8.60
2023-03-30T02:33:46.996Z,8.85
2023-03-30T02:38:10.194Z,8.77
2023-03-30T02:42:34.176Z,8.29
2023-03-30T02:46:52.007Z,8.44
2023-03-30T02:50:59.808Z,8.45
2023-03-30T02:55:11.785Z,8.42
2023-03-30T02:59:20.931Z,8.30
2023-03-30T03:03:28.698Z,8.32
2023-03-30T03:07:33.866Z,8.45
2023-03-30T03:11:36.746Z,8.29
2023-03-30T03:15:40.085Z,8.34
2023-03-30T03:19:44.183Z,8.32
2023-03-30T03:23:48.555Z,8.47
2023-03-30T03:27:51.250Z,8.51
2023-03-30T03:31:54.025Z,8.16
2023-03-30T03:36:00.184Z,8.23
2023-03-30T03:40:03.203Z,8.47
2023-03-30T03:44:06.320Z,8.32
2023-03-30T03:48:10.138Z,8.51
2023-03-30T03:52:14.451Z,8.38
2023-03-30T03:56:17.327Z,8.50
2023-03-30T04:00:20.975Z,8.36
2023-03-30T04:04:24.074Z,8.43
2023-03-30T04:08:28.628Z,8.37
2023-03-30T04:12:31.735Z,8.44
2023-03-30T04:16:34.605Z,8.60
2023-03-30T04:20:37.560Z,8.59
2023-03-30T04:24:42.762Z,8.36
2023-03-30T04:28:46.863Z,8.35
2023-03-30T04:33:02.388Z,8.44
2023-03-30T04:37:06.962Z,8.52
2023-03-30T04:41:14.170Z,8.50
2023-03-30T04:45:18.306Z,8.60
2023-03-30T04:49:21.350Z,8.61
2023-03-30T04:53:24.276Z,8.49
2023-03-30T04:57:28.672Z,8.63
2023-03-30T05:01:31.877Z,8.81
2023-03-30T05:05:35.111Z,9.10
2023-03-30T05:09:38.397Z,9.62
2023-03-30T05:13:42.860Z,9.76
2023-03-30T05:17:45.734Z,9.86
2023-03-30T05:21:48.599Z,10.00
2023-03-30T05:25:51.399Z,10.08
2023-03-30T05:29:55.756Z,10.19
2023-03-30T05:33:59.104Z,10.30
2023-03-30T05:38:02.008Z,10.22
2023-03-30T05:42:05.923Z,10.19
2023-03-30T05:46:10.688Z,10.23
2023-03-30T05:50:13.651Z,10.34
2023-03-30T05:54:16.392Z,10.33
2023-03-30T05:58:20.449Z,10.39
2023-03-30T06:02:24.930Z,10.40
2023-03-30T06:06:28.696Z,10.33
2023-03-30T06:10:32.288Z,10.08
2023-03-30T06:14:35.109Z,10.10
2023-03-30T06:18:39.599Z,10.37
2023-03-30T06:22:43.382Z,10.48
2023-03-30T06:26:46.499Z,10.37
2023-03-30T06:30:49.821Z,10.16
2023-03-30T06:34:54.524Z,10.26
2023-03-30T06:38:57.475Z,10.33
2023-03-30T06:43:01.133Z,10.39
2023-03-30T06:47:05.520Z,10.47
2023-03-30T06:51:10.320Z,10.65
2023-03-30T06:55:13.941Z,10.76
2023-03-30T06:59:16.796Z,10.85
2023-03-30T07:03:20.286Z,10.94
2023-03-30T07:07:24.495Z,10.92
2023-03-30T07:11:28.153Z,11.03
2023-03-30T07:15:30.993Z,11.17
2023-03-30T07:19:34.486Z,11.29
2023-03-30T07:23:39.088Z,12.07
2023-03-30T07:27:42.172Z,11.66
2023-03-30T07:31:45.269Z,11.65
2023-03-30T07:35:50.257Z,11.63
2023-03-30T07:39:54.716Z,11.70
2023-03-30T07:43:57.832Z,11.85
2023-03-30T07:48:01.042Z,11.80
2023-03-30T07:52:03.945Z,11.83
2023-03-30T07:56:08.849Z,11.73
2023-03-30T08:00:14.669Z,11.62
2023-03-30T08:04:17.935Z,11.59
2023-03-30T08:08:20.987Z,11.64
2023-03-30T08:12:25.914Z,11.64
2023-03-30T08:16:28.858Z,11.74
2023-03-30T08:20:32.094Z,11.61
2023-03-30T08:24:35.200Z,11.68
2023-03-30T08:28:39.819Z,11.78
2023-03-30T08:32:42.749Z,11.88
2023-03-30T08:36:45.677Z,12.04
2023-03-30T08:40:51.003Z,12.25
2023-03-30T08:44:57.040Z,12.36
2023-03-30T08:49:01.502Z,12.27
2023-03-30T08:53:05.203Z,12.32
2023-03-30T08:57:11.969Z,12.30
2023-03-30T09:01:20.737Z,12.33
2023-03-30T09:05:27.868Z,12.09
2023-03-30T09:09:32.726Z,12.16
2023-03-30T09:13:38.017Z,12.22
2023-03-30T09:17:44.908Z,12.69
2023-03-30T09:21:47.909Z,13.20
2023-03-30T09:25:53.568Z,13.82
2023-03-30T09:29:58.361Z,12.85
2023-03-30T09:34:08.534Z,12.92
2023-03-30T09:38:13.804Z,12.76
2023-03-30T09:42:23.290Z,12.42
2023-03-30T09:46:26.145Z,12.83
2023-03-30T09:50:30.712Z,12.83
2023-03-30T09:54:38.107Z,12.90
2023-03-30T09:58:41.925Z,12.91
2023-03-30T10:02:56.822Z,12.71
2023-03-30T10:07:09.799Z,13.67
2023-03-30T10:11:21.992Z,13.42
2023-03-30T10:15:31.175Z,13.55
2023-03-30T10:19:38.186Z,13.83
2023-03-30T10:23:45.697Z,14.06
2023-03-30T10:27:53.505Z,14.29
2023-03-30T10:32:00.224Z,14.10
2023-03-30T10:36:03.346Z,13.60
2023-03-30T10:40:16.375Z,14.55
2023-03-30T10:44:24.066Z,14.46
2023-03-30T10:48:36.434Z,14.84
2023-03-30T10:52:57.952Z,14.82
2023-03-30T10:57:09.883Z,15.24
2023-03-30T11:01:17.640Z,15.70
2023-03-30T11:05:23.248Z,15.39
2023-03-30T11:09:29.482Z,15.16
2023-03-30T11:13:36.217Z,14.98
2023-03-30T11:17:45.837Z,14.95
2023-03-30T11:21:56.992Z,15.07
2023-03-30T11:26:02.976Z,16.14
2023-03-30T11:30:12.579Z,16.61
2023-03-30T11:34:20.507Z,16.36
2023-03-30T11:38:27.368Z,16.36
2023-03-30T11:42:31.918Z,16.63
2023-03-30T11:46:42.105Z,15.24
2023-03-30T11:50:57.910Z,15.02
2023-03-30T11:55:19.829Z,15.30
2023-03-30T11:59:26.801Z,15.68
2023-03-30T12:03:41.132Z,16.61
2023-03-30T12:07:51.950Z,16.62
2023-03-30T12:12:04.843Z,16.56
2023-03-30T12:16:10.113Z,16.71
2023-03-30T12:20:22.319Z,17.08
2023-03-30T12:24:30.506Z,16.59
2023-03-30T12:29:11.270Z,16.14
2023-03-30T12:33:13.564Z,15.94
2023-03-30T12:37:21.281Z,15.54
2023-03-30T12:41:28.233Z,15.09
2023-03-30T12:45:33.439Z,14.87
2023-03-30T12:49:44.490Z,14.14
2023-03-30T12:53:58.846Z,14.81
2023-03-30T12:58:26.728Z,15.88
2023-03-30T13:02:40.381Z,16.78
2023-03-30T13:06:49.462Z,16.93
2023-03-30T13:11:07.720Z,15.76
2023-03-30T13:15:41.982Z,15.51
2023-03-30T13:19:49.604Z,16.59
2023-03-30T13:24:20.402Z,16.79
2023-03-30T13:28:49.359Z,15.59
2023-03-30T13:33:00.528Z,15.98
2023-03-30T13:37:13.210Z,16.42
2023-03-30T13:41:27.781Z,16.51
2023-03-30T13:45:48.607Z,16.26
2023-03-30T13:49:56.304Z,16.11
2023-03-30T13:54:01.102Z,16.63
2023-03-30T13:58:07.705Z,16.34
2023-03-30T14:02:15.530Z,16.26
2023-03-30T14:06:21.312Z,16.08
2023-03-30T14:10:24.558Z,16.46
2023-03-30T14:14:35.200Z,16.09
2023-03-30T14:18:39.341Z,15.18
2023-03-30T14:22:45.651Z,14.88
2023-03-30T14:26:50.295Z,14.64
2023-03-30T14:30:54.772Z,14.60
2023-03-30T14:34:58.850Z,14.80
2023-03-30T14:39:02.555Z,14.60
2023-03-30T14:43:06.172Z,14.53
2023-03-30T14:47:09.166Z,14.55
2023-03-30T14:51:26.572Z,14.50
2023-03-30T14:55:29.387Z,13.73
2023-03-30T14:59:34.395Z,13.19
2023-03-30T15:03:38.359Z,12.62
2023-03-30T15:07:42.564Z,12.17
2023-03-30T15:11:54.478Z,11.78
2023-03-30T15:15:57.264Z,11.82
2023-03-30T15:20:01.223Z,12.41
2023-03-30T15:24:08.289Z,12.40
2023-03-30T15:28:14.950Z,12.87
2023-03-30T15:32:20.033Z,12.90
2023-03-30T15:36:24.804Z,12.75
2023-03-30T15:40:42.973Z,12.69
2023-03-30T15:44:45.961Z,12.54
2023-03-30T15:48:50.305Z,12.08
2023-03-30T15:53:00.125Z,11.88
2023-03-30T15:57:06.283Z,12.00
2023-03-30T16:01:13.185Z,11.72
2023-03-30T16:05:19.401Z,11.93
2023-03-30T16:09:22.960Z,12.64
2023-03-30T16:13:27.137Z,12.61
2023-03-30T16:17:29.899Z,12.73
2023-03-30T16:21:32.726Z,12.51
2023-03-30T16:25:44.628Z,12.28
2023-03-30T16:29:49.573Z,12.02
2023-03-30T16:33:52.767Z,12.44
2023-03-30T16:37:55.522Z,12.27
2023-03-30T16:41:58.623Z,12.47
2023-03-30T16:46:02.812Z,12.01
2023-03-30T16:50:18.190Z,11.83
2023-03-30T16:54:31.229Z,11.55
2023-03-30T16:58:35.065Z,11.48
2023-03-30T17:02:39.538Z,11.49
2023-03-30T17:06:42.353Z,11.16
2023-03-30T17:10:45.302Z,11.20
2023-03-30T17:14:48.278Z,10.77
2023-03-30T17:18:52.741Z,10.43
2023-03-30T17:22:55.612Z,10.45
2023-03-30T17:26:59.474Z,10.49
2023-03-30T17:31:04.009Z,10.62
2023-03-30T17:35:10.602Z,10.31
2023-03-30T17:39:14.128Z,10.32
2023-03-30T17:43:16.983Z,9.98
2023-03-30T17:47:19.932Z,9.87
2023-03-30T17:51:23.966Z,9.78
2023-03-30T17:55:28.433Z,9.72
2023-03-30T17:59:31.388Z,9.59
2023-03-30T18:03:35.028Z,9.63
2023-03-30T18:07:39.560Z,9.36
2023-03-30T18:11:42.857Z,9.19
2023-03-30T18:15:49.248Z,9.27
2023-03-30T18:19:52.629Z,9.32
2023-03-30T18:23:56.958Z,9.12
2023-03-30T18:27:59.789Z,9.07
2023-03-30T18:32:02.798Z,9.37
2023-03-30T18:36:08.060Z,9.18
2023-03-30T18:40:32.098Z,9.12
2023-03-30T18:44:35.836Z,8.22
2023-03-30T18:48:38.846Z,8.59
2023-03-30T18:52:41.740Z,9.23
2023-03-30T18:56:47.813Z,8.89
2023-03-30T19:00:51.882Z,8.77
2023-03-30T19:04:55.836Z,9.01
2023-03-30T19:08:58.649Z,9.72
2023-03-30T19:13:02.913Z,9.64
2023-03-30T19:17:06.226Z,9.62
2023-03-30T19:21:10.687Z,9.25
2023-03-30T19:25:14.471Z,9.17
2023-03-30T19:29:18.567Z,9.28
2023-03-30T19:33:21.539Z,9.25
2023-03-30T19:37:24.367Z,9.15
2023-03-30T19:41:27.556Z,9.07
2023-03-30T19:45:31.848Z,8.78
2023-03-30T19:49:34.610Z,9.06
2023-03-30T19:53:37.397Z,8.63
2023-03-30T19:57:40.098Z,8.61
2023-03-30T20:01:44.293Z,8.75
2023-03-30T20:05:51.012Z,8.78
2023-03-30T20:09:54.123Z,8.73
2023-03-30T20:13:56.923Z,9.06
2023-03-30T20:18:01.047Z,8.76
2023-03-30T20:22:04.101Z,8.91
2023-03-30T20:26:06.904Z,8.68
2023-03-30T20:30:11.698Z,8.38
2023-03-30T20:34:16.760Z,8.81
2023-03-30T20:38:19.790Z,8.67
2023-03-30T20:42:26.387Z,8.43
2023-03-30T20:46:35.476Z,8.43
2023-03-30T20:50:39.892Z,8.72
2023-03-30T20:54:42.699Z,8.20
2023-03-30T20:58:45.539Z,8.28
2023-03-30T21:02:48.303Z,8.15
2023-03-30T21:06:52.473Z,7.79
2023-03-30T21:10:55.487Z,7.97
2023-03-30T21:14:58.246Z,7.81
2023-03-30T21:19:01.073Z,7.71
2023-03-30T21:23:05.462Z,7.87
2023-03-30T21:27:08.226Z,7.58
2023-03-30T21:31:16.428Z,7.50
2023-03-30T21:35:19.202Z,7.61
2023-03-30T21:39:23.789Z,7.89
2023-03-30T21:43:27.683Z,7.81
2023-03-30T21:47:31.299Z,7.63
2023-03-30T21:51:34.571Z,7.21
2023-03-30T21:55:38.629Z,7.22
2023-03-30T21:59:41.483Z,7.47
2023-03-30T22:03:46.195Z,7.52
2023-03-30T22:07:51.541Z,7.33
2023-03-30T22:11:55.877Z,7.37
2023-03-30T22:15:59.209Z,7.36
2023-03-30T22:20:02.120Z,7.51
2023-03-30T22:24:06.959Z,7.67
2023-03-30T22:28:12.034Z,7.85
2023-03-30T22:32:15.133Z,7.86
2023-03-30T22:36:20.525Z,7.90
2023-03-30T22:40:23.183Z,7.77
2023-03-30T22:44:27.321Z,7.69
2023-03-30T22:48:30.347Z,7.67
2023-03-30T22:52:33.636Z,7.46
2023-03-30T22:56:36.271Z,7.51
2023-03-30T23:00:40.361Z,7.65
2023-03-30T23:04:44.120Z,7.50
2023-03-30T23:08:48.439Z,7.68
2023-03-30T23:12:51.484Z,7.41
2023-03-30T23:16:57.661Z,7.51
2023-03-30T23:21:06.113Z,7.53
2023-03-30T23:25:10.198Z,7.64
2023-03-30T23:29:13.224Z,7.66
2023-03-30T23:33:17.348Z,7.65
2023-03-30T23:37:21.930Z,7.60
2023-03-30T23:41:24.651Z,8.72
2023-03-30T23:45:27.382Z,9.13
2023-03-30T23:49:31.462Z,9.19
2023-03-30T23:53:34.141Z,9.22
2023-03-30T23:57:36.958Z,9.20
